Time;durP1;ratioP1;P1;durP2;ratioP2;P2;SDS_P1;SDS_P2;PMS_P1;PMS_P2;Temp;Humidity;BMP_temperature;BMP_pressure;BME280_temperature;BME280_humidity;BME280_pressure;Samples;Min_cycle;Max_cycle;Signal;HPM_P1;HPM_P2
2021/06/26 00:01:29;;;;;;;3.87;2.92;;;20.70;73.70;;;;;;2346501;54;20975;-68
2021/06/26 00:03:56;;;;;;;4.10;2.65;;;20.70;73.70;;;;;;2348765;54;20958;-68
2021/06/26 00:06:24;;;;;;;4.12;2.67;;;20.70;73.70;;;;;;2588168;52;20969;-68
2021/06/26 00:08:52;;;;;;;5.72;3.35;;;20.70;73.80;;;;;;2345537;53;20936;-68
2021/06/26 00:11:19;;;;;;;4.93;3.40;;;20.70;73.80;;;;;;2346254;53;21805;-68
2021/06/26 00:13:46;;;;;;;4.78;3.50;;;20.70;73.80;;;;;;2349041;53;20926;-68
2021/06/26 00:16:12;;;;;;;4.07;3.00;;;20.70;73.80;;;;;;2348689;53;21828;-68
2021/06/26 00:18:38;;;;;;;4.68;3.37;;;20.70;73.80;;;;;;2344545;53;21008;-68
2021/06/26 00:21:05;;;;;;;4.82;3.33;;;20.60;73.70;;;;;;2345743;54;20995;-68
2021/06/26 00:23:34;;;;;;;4.80;3.25;;;20.70;73.70;;;;;;2347912;53;21036;-69
2021/06/26 00:26:07;;;;;;;3.42;2.28;;;20.70;73.70;;;;;;2345377;53;20949;-71
2021/06/26 00:28:34;;;;;;;4.12;2.50;;;20.70;73.80;;;;;;2342956;53;20992;-70
2021/06/26 00:31:00;;;;;;;4.37;2.87;;;20.70;73.80;;;;;;2350463;53;21086;-74
2021/06/26 00:33:26;;;;;;;4.43;3.15;;;20.60;73.80;;;;;;2344760;53;20996;-72
2021/06/26 00:35:52;;;;;;;4.80;3.33;;;20.60;73.70;;;;;;2346998;53;20965;-68
2021/06/26 00:38:20;;;;;;;4.80;2.80;;;20.60;73.70;;;;;;2350991;52;20972;-68
2021/06/26 00:40:47;;;;;;;5.28;2.97;;;20.60;73.60;;;;;;2352784;53;20971;-68
2021/06/26 00:43:15;;;;;;;3.70;2.33;;;20.60;73.60;;;;;;2347612;53;20930;-71
2021/06/26 00:45:41;;;;;;;4.18;2.60;;;20.50;73.50;;;;;;2346794;53;21758;-68
2021/06/26 00:48:07;;;;;;;5.00;2.75;;;20.50;73.50;;;;;;2345548;53;20954;-70
2021/06/26 00:50:35;;;;;;;4.20;2.80;;;20.50;73.50;;;;;;2346698;53;20918;-68
2021/06/26 00:53:01;;;;;;;4.53;2.80;;;20.50;73.60;;;;;;2348993;53;20997;-69
2021/06/26 00:55:29;;;;;;;3.75;2.62;;;20.40;73.60;;;;;;2349648;53;21826;-69
2021/06/26 00:57:57;;;;;;;4.37;2.75;;;20.40;73.70;;;;;;2463904;52;20962;-70
2021/06/26 01:00:24;;;;;;;4.28;2.70;;;20.40;73.70;;;;;;2400245;52;21471;-68
2021/06/26 01:02:50;;;;;;;3.70;2.58;;;20.40;73.90;;;;;;2342972;53;20944;-68
2021/06/26 01:05:17;;;;;;;3.90;2.55;;;20.40;74.10;;;;;;2572714;52;20982;-68
2021/06/26 01:07:43;;;;;;;4.57;3.10;;;20.40;74.20;;;;;;2353539;53;21223;-72
2021/06/26 01:10:10;;;;;;;9.60;3.65;;;20.30;74.20;;;;;;2345386;53;20954;-70
2021/06/26 01:12:38;;;;;;;3.92;2.50;;;20.30;74.30;;;;;;2350349;53;20950;-68
2021/06/26 01:15:06;;;;;;;4.10;2.80;;;20.30;74.30;;;;;;2347232;53;20954;-68
2021/06/26 01:17:32;;;;;;;3.78;2.50;;;20.30;74.40;;;;;;2347683;53;20932;-72
2021/06/26 01:20:00;;;;;;;3.60;2.60;;;20.30;74.50;;;;;;2345839;53;20942;-70
2021/06/26 01:22:27;;;;;;;4.30;2.70;;;20.30;74.50;;;;;;2348173;53;21055;-68
2021/06/26 01:24:55;;;;;;;3.55;2.40;;;20.30;74.50;;;;;;2345635;53;20953;-68
2021/06/26 01:27:21;;;;;;;6.25;3.17;;;20.30;74.60;;;;;;2350348;54;20955;-68
2021/06/26 01:29:52;;;;;;;3.95;2.60;;;20.30;74.60;;;;;;2351194;53;20970;-69
2021/06/26 01:32:19;;;;;;;3.58;2.30;;;20.30;74.50;;;;;;2346281;53;20938;-71
2021/06/26 01:34:45;;;;;;;3.55;2.30;;;20.30;74.50;;;;;;2346900;53;21030;-68
2021/06/26 01:37:12;;;;;;;3.62;2.55;;;20.30;74.50;;;;;;2328002;54;21691;-71
2021/06/26 01:39:40;;;;;;;4.15;2.62;;;20.30;74.50;;;;;;2346404;53;21000;-72
2021/06/26 01:42:08;;;;;;;3.78;2.45;;;20.30;74.50;;;;;;2345388;53;20945;-68
2021/06/26 01:44:35;;;;;;;3.87;2.78;;;20.30;74.50;;;;;;2390301;53;21042;-69
2021/06/26 01:47:04;;;;;;;4.87;3.10;;;20.30;74.50;;;;;;2347693;54;20924;-68
2021/06/26 01:49:30;;;;;;;4.18;2.80;;;20.30;74.50;;;;;;2588073;52;20914;-69
2021/06/26 01:51:58;;;;;;;4.30;2.97;;;20.30;74.50;;;;;;2344631;53;21024;-68
2021/06/26 01:54:24;;;;;;;4.12;2.72;;;20.30;74.60;;;;;;2359273;53;21053;-68
2021/06/26 01:56:50;;;;;;;5.30;3.05;;;20.30;74.60;;;;;;2490522;52;21022;-67
2021/06/26 01:59:16;;;;;;;4.45;3.17;;;20.30;74.60;;;;;;2347589;53;20953;-68
2021/06/26 02:01:43;;;;;;;4.50;3.50;;;20.30;74.70;;;;;;2345954;53;21009;-70
2021/06/26 02:04:09;;;;;;;6.37;2.90;;;20.20;74.60;;;;;;2345402;53;20928;-68
2021/06/26 02:06:36;;;;;;;5.53;3.20;;;20.20;74.60;;;;;;2348907;53;20913;-72
2021/06/26 02:09:02;;;;;;;3.92;2.45;;;20.20;74.70;;;;;;2356974;53;21042;-73
2021/06/26 02:11:29;;;;;;;4.53;2.83;;;20.20;74.70;;;;;;2338724;53;20904;-68
2021/06/26 02:13:57;;;;;;;6.53;2.78;;;20.20;74.80;;;;;;2345108;53;20958;-69
2021/06/26 02:16:24;;;;;;;3.78;2.72;;;20.20;74.80;;;;;;2347212;53;20914;-68
2021/06/26 02:18:50;;;;;;;4.47;3.17;;;20.20;74.90;;;;;;2346300;53;21311;-70
2021/06/26 02:21:16;;;;;;;4.78;2.92;;;20.20;74.90;;;;;;2349831;53;21774;-71
2021/06/26 02:23:43;;;;;;;4.00;2.70;;;20.20;74.90;;;;;;2346318;54;21014;-69
2021/06/26 02:26:09;;;;;;;4.47;2.72;;;20.20;74.90;;;;;;2343819;53;20964;-72
2021/06/26 02:28:36;;;;;;;5.65;3.30;;;20.30;75.00;;;;;;2348085;53;21014;-68
2021/06/26 02:31:02;;;;;;;6.05;3.08;;;20.20;74.80;;;;;;2349930;53;21877;-68
2021/06/26 02:33:29;;;;;;;5.45;2.97;;;20.20;74.80;;;;;;2588372;52;20927;-69
2021/06/26 02:35:55;;;;;;;4.03;2.62;;;20.20;74.80;;;;;;2348595;53;20967;-72
2021/06/26 02:38:25;;;;;;;4.35;3.00;;;20.20;74.80;;;;;;2343590;53;20995;-74
2021/06/26 02:40:52;;;;;;;4.43;2.60;;;20.20;74.80;;;;;;2349064;53;21062;-71
2021/06/26 02:43:19;;;;;;;5.10;2.87;;;20.20;74.90;;;;;;2348588;53;20929;-70
2021/06/26 02:45:46;;;;;;;3.60;2.70;;;20.20;74.90;;;;;;2345638;53;21005;-68
2021/06/26 02:48:13;;;;;;;4.57;2.92;;;20.20;74.90;;;;;;2348706;53;20929;-68
2021/06/26 02:50:40;;;;;;;3.85;2.85;;;20.20;74.90;;;;;;2351628;53;20950;-68
2021/06/26 02:53:07;;;;;;;4.07;2.67;;;20.20;75.00;;;;;;2370794;53;21025;-70
2021/06/26 02:55:33;;;;;;;4.10;2.80;;;20.20;75.00;;;;;;2345680;53;21771;-69
2021/06/26 02:57:59;;;;;;;4.10;2.97;;;20.20;75.00;;;;;;2586100;52;21585;-68
2021/06/26 03:00:25;;;;;;;4.35;2.95;;;20.20;75.10;;;;;;2587397;52;21001;-70
2021/06/26 03:02:52;;;;;;;6.55;3.60;;;20.20;75.10;;;;;;2350369;53;21001;-71
2021/06/26 03:05:18;;;;;;;4.75;3.55;;;20.20;75.00;;;;;;2344990;53;21017;-69
2021/06/26 03:07:51;;;;;;;4.85;3.30;;;20.20;75.00;;;;;;2348837;53;21013;-71
2021/06/26 03:10:18;;;;;;;4.45;3.05;;;20.20;74.80;;;;;;2353758;53;21231;-71
2021/06/26 03:12:44;;;;;;;4.85;2.92;;;20.20;75.20;;;;;;2347261;53;21943;-72
2021/06/26 03:15:11;;;;;;;4.82;3.47;;;20.20;75.30;;;;;;2348671;53;20945;-68
2021/06/26 03:17:38;;;;;;;5.60;3.47;;;20.20;75.30;;;;;;2347440;54;20993;-69
2021/06/26 03:20:05;;;;;;;5.47;3.60;;;20.20;75.40;;;;;;2346689;54;21395;-68
2021/06/26 03:22:31;;;;;;;4.57;2.97;;;20.20;75.40;;;;;;2348702;53;21433;-68
2021/06/26 03:24:57;;;;;;;6.35;4.20;;;20.20;75.50;;;;;;2345688;53;21635;-72
2021/06/26 03:27:24;;;;;;;5.78;4.07;;;20.20;75.50;;;;;;2345916;53;21466;-68
2021/06/26 03:29:50;;;;;;;4.43;3.22;;;20.20;75.50;;;;;;2383262;53;21541;-73
2021/06/26 03:32:17;;;;;;;4.90;3.60;;;20.20;75.60;;;;;;2588967;52;20962;-68
2021/06/26 03:34:44;;;;;;;6.55;4.05;;;20.20;75.60;;;;;;2347237;53;20955;-68
2021/06/26 03:37:10;;;;;;;6.75;4.00;;;20.20;75.60;;;;;;2347293;54;21002;-73
2021/06/26 03:39:36;;;;;;;5.25;3.80;;;20.20;75.50;;;;;;2344613;53;20956;-68
2021/06/26 03:42:03;;;;;;;5.82;4.30;;;20.20;75.50;;;;;;2524083;52;21594;-72
2021/06/26 03:44:29;;;;;;;5.07;3.58;;;20.20;75.40;;;;;;2347113;53;21025;-68
2021/06/26 03:46:55;;;;;;;5.68;3.70;;;20.20;75.50;;;;;;2346982;53;20930;-72
2021/06/26 03:49:22;;;;;;;5.30;3.75;;;20.20;75.50;;;;;;2349564;53;21815;-72
2021/06/26 03:51:48;;;;;;;4.87;3.42;;;20.20;75.60;;;;;;2347883;53;20946;-70
2021/06/26 03:54:14;;;;;;;4.65;3.28;;;20.20;75.70;;;;;;2344756;53;21369;-71
2021/06/26 03:56:41;;;;;;;5.43;3.90;;;20.20;75.70;;;;;;2589346;52;20974;-73
2021/06/26 03:59:07;;;;;;;5.40;3.92;;;20.20;75.70;;;;;;2350923;53;20946;-68
2021/06/26 04:01:36;;;;;;;6.40;4.30;;;20.20;75.60;;;;;;2345204;53;21492;-68
2021/06/26 04:04:02;;;;;;;5.12;3.80;;;20.20;75.40;;;;;;2484537;52;20954;-68
2021/06/26 04:06:31;;;;;;;5.05;3.60;;;20.20;75.40;;;;;;2351093;53;21073;-69
2021/06/26 04:08:57;;;;;;;6.60;4.43;;;20.20;75.20;;;;;;2346268;53;21013;-68
2021/06/26 04:11:23;;;;;;;5.55;3.70;;;20.20;75.30;;;;;;2588300;52;20973;-73
2021/06/26 04:13:54;;;;;;;5.37;3.90;;;20.20;75.40;;;;;;2347058;53;21094;-68
2021/06/26 04:16:20;;;;;;;5.40;3.78;;;20.20;75.30;;;;;;2345815;53;20966;-73
2021/06/26 04:18:46;;;;;;;4.95;3.78;;;20.20;75.60;;;;;;2346343;54;20960;-69
2021/06/26 04:21:12;;;;;;;5.65;3.60;;;20.20;75.60;;;;;;2345112;54;20938;-71
2021/06/26 04:23:39;;;;;;;6.00;3.90;;;20.20;75.70;;;;;;2349414;53;21937;-69
2021/06/26 04:26:05;;;;;;;4.93;3.55;;;20.20;75.70;;;;;;2345752;53;20922;-69
2021/06/26 04:28:32;;;;;;;4.97;3.62;;;20.20;75.70;;;;;;2348023;53;21010;-71
2021/06/26 04:30:58;;;;;;;4.53;3.47;;;20.20;75.80;;;;;;2349229;54;21440;-68
2021/06/26 04:33:29;;;;;;;5.03;3.58;;;20.20;75.90;;;;;;2348802;53;20933;-72
2021/06/26 04:35:58;;;;;;;5.20;3.50;;;20.20;76.00;;;;;;2328857;53;20987;-71
2021/06/26 04:38:24;;;;;;;7.78;3.90;;;20.20;76.00;;;;;;2408323;52;21470;-68
2021/06/26 04:40:51;;;;;;;6.78;4.03;;;20.20;76.20;;;;;;2348828;53;21022;-68
2021/06/26 04:43:20;;;;;;;7.62;4.87;;;20.30;76.40;;;;;;2347458;53;21015;-72
2021/06/26 04:45:49;;;;;;;6.87;4.62;;;20.30;76.30;;;;;;2345742;53;21041;-70
2021/06/26 04:48:17;;;;;;;6.40;3.90;;;20.30;76.30;;;;;;2344033;53;21025;-69
2021/06/26 04:50:43;;;;;;;5.53;3.97;;;20.30;76.30;;;;;;2346700;53;21053;-69
2021/06/26 04:53:10;;;;;;;8.05;4.47;;;20.30;76.40;;;;;;2348979;53;20966;-71
2021/06/26 04:55:37;;;;;;;6.65;4.50;;;20.30;76.50;;;;;;2440558;52;21028;-69
2021/06/26 04:58:03;;;;;;;6.75;5.05;;;20.30;76.40;;;;;;2342371;53;20983;-69
2021/06/26 05:00:29;;;;;;;6.93;4.22;;;20.40;76.60;;;;;;2347055;53;20961;-68
2021/06/26 05:02:56;;;;;;;5.90;3.92;;;20.40;76.60;;;;;;2345060;54;20953;-68
2021/06/26 05:05:22;;;;;;;4.28;3.15;;;20.40;76.60;;;;;;2350758;53;20983;-69
2021/06/26 05:07:48;;;;;;;5.72;4.00;;;20.50;76.90;;;;;;2354285;52;21031;-68
2021/06/26 05:10:14;;;;;;;5.47;4.03;;;20.50;76.90;;;;;;2586737;52;20949;-68
2021/06/26 05:12:44;;;;;;;7.45;4.57;;;20.50;76.90;;;;;;2349801;53;22573;-68
2021/06/26 05:15:11;;;;;;;5.95;4.45;;;20.60;76.90;;;;;;2587934;52;21058;-73
2021/06/26 05:17:37;;;;;;;5.80;4.15;;;20.60;77.00;;;;;;2347149;53;20910;-68
2021/06/26 05:20:04;;;;;;;6.90;3.92;;;20.60;77.10;;;;;;2346036;53;21511;-69
2021/06/26 05:22:30;;;;;;;7.30;4.47;;;20.70;77.20;;;;;;2346730;53;20934;-68
2021/06/26 05:24:57;;;;;;;9.65;5.65;;;20.60;77.00;;;;;;2345251;53;20934;-71
2021/06/26 05:27:23;;;;;;;6.07;4.53;;;20.70;76.90;;;;;;2350178;53;21080;-71
2021/06/26 05:29:49;;;;;;;6.32;4.40;;;20.80;76.80;;;;;;2349300;53;20935;-69
2021/06/26 05:32:16;;;;;;;7.20;4.20;;;20.80;77.00;;;;;;2521650;52;3138393;-69
2021/06/26 05:34:42;;;;;;;5.57;4.45;;;20.80;77.10;;;;;;2352116;53;21005;-72
2021/06/26 05:37:08;;;;;;;6.75;5.40;;;20.90;77.30;;;;;;2346171;53;20947;-69
2021/06/26 05:39:35;;;;;;;6.57;5.03;;;20.90;77.10;;;;;;2345645;53;20941;-68
2021/06/26 05:42:01;;;;;;;6.32;4.82;;;20.90;77.00;;;;;;2347274;53;21798;-70
2021/06/26 05:44:27;;;;;;;7.00;4.60;;;21.00;77.20;;;;;;2345714;53;21017;-68
2021/06/26 05:46:53;;;;;;;7.85;4.50;;;21.00;77.10;;;;;;2349883;53;21719;-72
2021/06/26 05:49:20;;;;;;;7.62;4.78;;;21.00;77.00;;;;;;2351484;53;20994;-73
2021/06/26 05:51:46;;;;;;;6.87;4.35;;;21.10;77.00;;;;;;2346354;53;21395;-69
2021/06/26 05:54:12;;;;;;;5.53;4.15;;;21.10;77.00;;;;;;2348376;53;20918;-68
2021/06/26 05:56:41;;;;;;;5.72;4.68;;;21.20;77.00;;;;;;2345532;53;20992;-72
2021/06/26 05:59:07;;;;;;;6.35;5.12;;;21.10;77.00;;;;;;2348435;53;21021;-69
2021/06/26 06:01:35;;;;;;;6.93;5.12;;;21.20;77.00;;;;;;2345950;53;20969;-70
2021/06/26 06:04:02;;;;;;;7.37;4.85;;;21.20;77.00;;;;;;2351225;53;21758;-69
2021/06/26 06:06:28;;;;;;;6.40;4.90;;;21.30;77.10;;;;;;2344353;53;20948;-69
2021/06/26 06:08:54;;;;;;;6.45;4.72;;;21.30;77.00;;;;;;2346570;53;20950;-73
2021/06/26 06:11:21;;;;;;;5.53;4.75;;;21.40;76.90;;;;;;2587515;52;20961;-71
2021/06/26 06:13:48;;;;;;;7.95;5.00;;;21.40;76.80;;;;;;2545413;52;21015;-69
2021/06/26 06:16:17;;;;;;;6.18;4.85;;;21.40;76.80;;;;;;2349432;53;21779;-71
2021/06/26 06:18:44;;;;;;;5.72;4.25;;;21.50;76.90;;;;;;2351193;53;21010;-72
2021/06/26 06:21:10;;;;;;;6.40;4.60;;;21.50;77.00;;;;;;2537952;53;20957;-72
2021/06/26 06:23:37;;;;;;;6.10;4.50;;;21.60;77.10;;;;;;2346810;53;21428;-72
2021/06/26 06:26:03;;;;;;;7.40;4.57;;;21.60;77.10;;;;;;2351160;53;20978;-73
2021/06/26 06:28:29;;;;;;;6.50;4.85;;;21.70;77.10;;;;;;2344324;53;20944;-75
2021/06/26 06:30:55;;;;;;;5.90;4.82;;;21.70;77.00;;;;;;2346051;53;20961;-73
2021/06/26 06:33:22;;;;;;;5.85;4.47;;;21.70;77.00;;;;;;2349758;53;21054;-73
2021/06/26 06:35:48;;;;;;;5.97;4.53;;;21.80;77.00;;;;;;2348395;53;21074;-70
2021/06/26 06:38:15;;;;;;;5.85;4.68;;;21.80;77.00;;;;;;2346969;53;21008;-70
2021/06/26 06:40:46;;;;;;;5.90;4.57;;;21.80;77.00;;;;;;2345158;53;20945;-74
2021/06/26 06:43:12;;;;;;;6.65;4.40;;;21.90;76.80;;;;;;2347184;53;20978;-70
2021/06/26 06:45:39;;;;;;;7.30;4.55;;;21.90;77.10;;;;;;2348750;54;21013;-70
2021/06/26 06:48:06;;;;;;;6.82;4.25;;;22.00;77.30;;;;;;2349429;53;21417;-69
2021/06/26 06:50:33;;;;;;;5.87;4.68;;;22.00;77.40;;;;;;2345665;53;21715;-69
2021/06/26 06:53:02;;;;;;;7.30;4.82;;;22.10;77.50;;;;;;2343366;53;20943;-74
2021/06/26 06:55:29;;;;;;;5.70;4.32;;;22.10;77.50;;;;;;2350936;53;20959;-74
2021/06/26 06:57:58;;;;;;;7.07;5.25;;;22.20;77.50;;;;;;2345767;53;20950;-74
2021/06/26 07:00:25;;;;;;;6.22;4.60;;;22.30;77.50;;;;;;2330491;53;20970;-73
2021/06/26 07:02:51;;;;;;;5.70;4.85;;;22.30;77.50;;;;;;2353382;53;20998;-71
2021/06/26 07:05:17;;;;;;;6.00;4.47;;;22.40;77.70;;;;;;2347775;53;21975;-71
2021/06/26 07:07:45;;;;;;;6.10;4.97;;;22.40;77.60;;;;;;2388001;53;21049;-70
2021/06/26 07:10:11;;;;;;;6.95;4.82;;;22.50;77.50;;;;;;2350945;53;20911;-74
2021/06/26 07:12:38;;;;;;;6.47;5.05;;;22.60;77.60;;;;;;2450853;53;21320;-69
2021/06/26 07:15:05;;;;;;;6.55;4.68;;;22.60;77.70;;;;;;2349163;53;21055;-71
2021/06/26 07:17:31;;;;;;;6.25;4.95;;;22.70;77.80;;;;;;2351055;53;21510;-71
2021/06/26 07:19:58;;;;;;;7.28;5.60;;;22.80;78.10;;;;;;2347943;53;21054;-70
2021/06/26 07:22:27;;;;;;;6.60;4.47;;;22.90;78.20;;;;;;2344216;53;20962;-70
2021/06/26 07:24:54;;;;;;;7.65;5.03;;;23.00;78.20;;;;;;2586752;52;20942;-72
2021/06/26 07:27:22;;;;;;;5.80;4.68;;;23.10;78.10;;;;;;2347037;53;21002;-71
2021/06/26 07:29:48;;;;;;;6.55;4.97;;;23.20;78.10;;;;;;2348619;53;21534;-70
2021/06/26 07:32:15;;;;;;;7.50;5.43;;;23.20;77.90;;;;;;2347526;53;20942;-74
2021/06/26 07:34:42;;;;;;;6.55;5.00;;;23.30;77.70;;;;;;2345791;53;20979;-76
2021/06/26 07:37:09;;;;;;;6.62;4.28;;;23.40;77.90;;;;;;2348724;53;21105;-73
2021/06/26 07:39:35;;;;;;;6.87;5.18;;;23.50;77.80;;;;;;2351928;53;21819;-70
2021/06/26 07:42:01;;;;;;;6.37;4.53;;;23.60;77.70;;;;;;2345749;53;21001;-72
2021/06/26 07:44:28;;;;;;;7.35;5.12;;;23.70;77.70;;;;;;2347480;53;21041;-70
2021/06/26 07:46:54;;;;;;;6.87;4.72;;;23.80;77.60;;;;;;2346682;54;20960;-70
2021/06/26 07:49:21;;;;;;;8.60;5.50;;;23.80;77.10;;;;;;2591146;52;21005;-68
2021/06/26 07:51:47;;;;;;;6.80;5.18;;;23.90;77.00;;;;;;2493165;52;20997;-70
2021/06/26 07:54:16;;;;;;;8.00;5.03;;;23.90;76.80;;;;;;2347429;53;20954;-70
2021/06/26 07:56:46;;;;;;;7.53;5.15;;;24.00;76.40;;;;;;2349946;53;21103;-72
2021/06/26 07:59:12;;;;;;;6.75;4.55;;;24.10;76.10;;;;;;2347026;53;20928;-69
2021/06/26 08:01:39;;;;;;;6.82;4.45;;;24.10;76.10;;;;;;2349104;53;20953;-70
2021/06/26 08:04:05;;;;;;;6.60;5.18;;;24.20;76.20;;;;;;2346213;53;21839;-71
2021/06/26 08:06:31;;;;;;;6.18;4.95;;;24.20;75.90;;;;;;2349532;53;21022;-75
2021/06/26 08:08:59;;;;;;;7.68;5.28;;;24.20;75.40;;;;;;2346378;53;20920;-70
2021/06/26 08:11:25;;;;;;;5.43;4.22;;;24.20;75.40;;;;;;2346439;54;20928;-70
2021/06/26 08:13:53;;;;;;;7.72;5.20;;;24.20;75.60;;;;;;2349100;53;21026;-69
2021/06/26 08:16:19;;;;;;;5.37;4.20;;;24.30;75.60;;;;;;2355214;53;21884;-70
2021/06/26 08:18:45;;;;;;;6.07;4.72;;;24.30;75.60;;;;;;2348755;53;21733;-69
2021/06/26 08:21:12;;;;;;;6.30;4.55;;;24.40;75.60;;;;;;2342181;53;21026;-71
2021/06/26 08:23:38;;;;;;;5.78;4.68;;;24.40;75.40;;;;;;2346192;53;20955;-70
2021/06/26 08:26:04;;;;;;;5.68;4.87;;;24.40;75.20;;;;;;2348304;53;21296;-70
2021/06/26 08:28:31;;;;;;;6.40;4.90;;;24.40;74.90;;;;;;2345628;54;20980;-69
2021/06/26 08:30:57;;;;;;;6.78;4.57;;;24.40;74.60;;;;;;2349527;53;21014;-69
2021/06/26 08:33:23;;;;;;;5.43;4.22;;;24.40;75.20;;;;;;2350993;53;20922;-72
2021/06/26 08:35:49;;;;;;;5.03;3.85;;;24.40;74.60;;;;;;2347559;53;20990;-70
2021/06/26 08:38:18;;;;;;;5.62;4.05;;;24.40;74.70;;;;;;2349651;53;20983;-69
2021/06/26 08:40:44;;;;;;;6.25;4.57;;;24.40;74.90;;;;;;2351699;53;21077;-71
2021/06/26 08:43:11;;;;;;;5.35;3.90;;;24.50;74.70;;;;;;2572813;52;20975;-70
2021/06/26 08:45:37;;;;;;;5.85;4.03;;;24.50;74.40;;;;;;2343852;53;20938;-69
2021/06/26 08:48:04;;;;;;;5.70;3.90;;;24.50;74.60;;;;;;2464817;52;21453;-68
2021/06/26 08:50:30;;;;;;;6.40;4.93;;;24.50;74.90;;;;;;2347900;53;20975;-67
2021/06/26 08:52:57;;;;;;;5.55;4.28;;;24.50;74.70;;;;;;2346750;53;20915;-67
2021/06/26 08:55:26;;;;;;;6.05;4.22;;;24.60;75.00;;;;;;2349658;53;20910;-68
2021/06/26 08:57:52;;;;;;;4.97;4.00;;;24.60;75.00;;;;;;2346113;53;20969;-69
2021/06/26 09:00:25;;;;;;;4.70;3.47;;;24.70;74.90;;;;;;2551235;52;21046;-69
2021/06/26 09:03:03;;;;;;;4.57;3.22;;;24.70;74.30;;;;;;2330942;53;21105;-73
2021/06/26 09:05:39;;;;;;;6.37;3.58;;;24.80;75.10;;;;;;2347719;53;20982;-69
2021/06/26 09:08:16;;;;;;;4.32;3.33;;;24.80;75.20;;;;;;2330411;53;21550;-70
2021/06/26 09:10:44;;;;;;;4.43;3.22;;;24.80;74.10;;;;;;2335285;53;21853;-71
2021/06/26 09:13:31;;;;;;;4.82;3.58;;;24.90;74.80;;;;;;2570227;52;21025;-69
2021/06/26 09:16:15;;;;;;;4.85;3.15;;;24.90;74.50;;;;;;2348432;53;20902;-69
2021/06/26 09:18:46;;;;;;;4.70;3.50;;;25.00;72.90;;;;;;2350028;53;21039;-69
2021/06/26 09:21:34;;;;;;;5.30;3.42;;;25.00;73.40;;;;;;2350709;54;21055;-70
2021/06/26 09:24:11;;;;;;;4.93;3.15;;;24.90;72.40;;;;;;2344939;54;21073;-70
2021/06/26 09:26:42;;;;;;;4.07;3.03;;;24.90;72.50;;;;;;2345614;53;20998;-69
2021/06/26 09:29:14;;;;;;;4.28;3.30;;;24.90;73.10;;;;;;2327223;53;20962;-70
2021/06/26 09:31:57;;;;;;;4.90;3.33;;;24.90;73.20;;;;;;2345876;53;20928;-70
2021/06/26 09:34:45;;;;;;;4.53;3.60;;;24.80;72.50;;;;;;2444970;53;21538;-70
2021/06/26 09:37:12;;;;;;;5.10;3.35;;;24.80;73.60;;;;;;2587269;52;20944;-75
2021/06/26 09:39:43;;;;;;;5.12;3.55;;;24.90;73.90;;;;;;2586485;52;20947;-73
2021/06/26 09:42:23;;;;;;;5.35;3.75;;;24.80;73.90;;;;;;2346902;53;20953;-70
2021/06/26 09:44:57;;;;;;;5.20;3.78;;;24.90;73.00;;;;;;2587770;52;20916;-71
2021/06/26 09:50:55;;;;;;;4.87;3.70;;;24.90;73.40;;;;;;2349857;53;20931;-76
2021/06/26 09:53:25;;;;;;;4.47;3.28;;;25.00;72.70;;;;;;2351346;54;21083;-74
2021/06/26 09:55:53;;;;;;;4.93;3.45;;;25.00;74.10;;;;;;2346731;53;20958;-73
2021/06/26 09:58:20;;;;;;;4.87;3.00;;;25.00;74.00;;;;;;2346440;53;20970;-72
2021/06/26 10:00:47;;;;;;;4.28;3.22;;;25.00;74.00;;;;;;2349563;53;20990;-75
2021/06/26 10:03:19;;;;;;;4.45;3.33;;;25.00;74.10;;;;;;2347567;53;22080;-76
2021/06/26 10:05:46;;;;;;;5.45;3.80;;;25.00;73.70;;;;;;2435621;52;20956;-75
2021/06/26 10:08:14;;;;;;;4.93;3.58;;;25.00;74.60;;;;;;2372611;53;20962;-73
2021/06/26 10:10:42;;;;;;;5.68;4.28;;;25.10;74.90;;;;;;2442159;53;20978;-75
2021/06/26 10:13:11;;;;;;;4.90;3.58;;;25.20;75.00;;;;;;2347898;53;20928;-74
2021/06/26 10:15:37;;;;;;;4.37;3.28;;;25.20;74.70;;;;;;2345651;53;20942;-74
2021/06/26 10:18:04;;;;;;;5.00;3.42;;;25.30;75.20;;;;;;2345702;53;20941;-75
2021/06/26 10:20:30;;;;;;;6.68;3.70;;;25.30;75.40;;;;;;2349987;53;20955;-78
2021/06/26 10:22:58;;;;;;;4.53;3.85;;;25.40;75.70;;;;;;2348788;53;21026;-67
2021/06/26 10:25:34;;;;;;;4.72;3.90;;;25.50;75.60;;;;;;2348192;53;20910;-70
2021/06/26 10:28:17;;;;;;;4.95;4.00;;;25.60;74.10;;;;;;2348316;53;20974;-70
2021/06/26 10:31:02;;;;;;;4.22;3.42;;;25.70;73.70;;;;;;2436232;53;20932;-67
2021/06/26 10:33:29;;;;;;;4.70;3.92;;;25.80;73.80;;;;;;2347086;53;21001;-68
2021/06/26 10:35:57;;;;;;;5.82;3.92;;;25.90;75.30;;;;;;2347342;53;20990;-68
2021/06/26 10:38:23;;;;;;;4.93;3.67;;;26.00;75.10;;;;;;2511394;52;20991;-71
2021/06/26 10:40:54;;;;;;;5.25;4.00;;;26.10;74.90;;;;;;2349173;53;20930;-71
2021/06/26 10:43:31;;;;;;;5.80;4.45;;;26.20;74.40;;;;;;2348779;53;20962;-69
2021/06/26 10:46:11;;;;;;;5.37;3.70;;;26.30;73.60;;;;;;2345610;53;21015;-68
2021/06/26 10:48:39;;;;;;;5.25;3.90;;;26.40;73.90;;;;;;2534728;52;21013;-69
2021/06/26 10:51:06;;;;;;;5.18;4.15;;;26.60;75.20;;;;;;2346154;53;20973;-70
2021/06/26 10:53:34;;;;;;;5.43;4.30;;;26.70;75.10;;;;;;2344697;53;21417;-65
2021/06/26 10:56:11;;;;;;;6.00;4.40;;;26.80;74.90;;;;;;2344708;54;20917;-66
2021/06/26 10:58:41;;;;;;;4.37;3.60;;;26.90;72.60;;;;;;2344832;53;20994;-65
2021/06/26 11:01:12;;;;;;;4.68;3.70;;;27.00;74.00;;;;;;2349162;53;21470;-65
2021/06/26 11:03:38;;;;;;;6.12;3.28;;;27.10;73.50;;;;;;2349693;53;21848;-65
2021/06/26 11:06:29;;;;;;;5.95;3.58;;;27.10;73.90;;;;;;2348301;53;21507;-66
2021/06/26 11:08:57;;;;;;;8.52;3.85;;;27.20;72.90;;;;;;2384076;53;20992;-66
2021/06/26 11:11:34;;;;;;;4.82;4.12;;;27.30;74.30;;;;;;2350185;54;21023;-67
2021/06/26 11:14:19;;;;;;;4.50;3.75;;;27.40;73.50;;;;;;2453720;52;20994;-66
2021/06/26 11:16:54;;;;;;;4.70;3.83;;;27.50;72.10;;;;;;2351437;53;20967;-65
2021/06/26 11:19:22;;;;;;;5.10;4.37;;;27.50;72.00;;;;;;2370041;52;20974;-65
2021/06/26 11:21:57;;;;;;;4.93;4.07;;;27.50;71.60;;;;;;2519577;52;20954;-66
2021/06/26 11:24:40;;;;;;;5.28;3.83;;;27.50;70.30;;;;;;2348030;53;20950;-65
2021/06/26 11:27:11;;;;;;;4.82;4.10;;;27.50;70.10;;;;;;2345407;53;20986;-65
2021/06/26 11:29:39;;;;;;;4.37;3.65;;;27.50;71.50;;;;;;2343853;54;21008;-66
2021/06/26 11:32:24;;;;;;;4.93;3.87;;;27.60;71.10;;;;;;2329021;54;21004;-65
2021/06/26 11:35:51;;;;;;;4.30;3.50;;;27.50;69.00;;;;;;2352918;53;21823;-65
2021/06/26 11:38:18;;;;;;;4.90;3.67;;;27.60;69.20;;;;;;2345428;53;21955;-69
2021/06/26 11:40:46;;;;;;;5.37;4.10;;;27.60;71.60;;;;;;2345592;53;20957;-65
2021/06/26 11:43:12;;;;;;;4.87;3.85;;;27.60;71.40;;;;;;2346068;53;20930;-65
2021/06/26 11:45:48;;;;;;;4.87;4.07;;;27.70;71.50;;;;;;2351209;53;20993;-65
2021/06/26 11:48:18;;;;;;;4.93;3.67;;;27.70;71.20;;;;;;2345202;53;20958;-67
2021/06/26 11:51:01;;;;;;;4.87;3.92;;;27.70;70.30;;;;;;2586857;52;21021;-65
2021/06/26 11:53:28;;;;;;;5.90;4.35;;;27.70;70.00;;;;;;2348255;53;20974;-66
2021/06/26 11:55:59;;;;;;;5.35;3.83;;;27.80;71.70;;;;;;2348940;53;20954;-65
2021/06/26 11:58:44;;;;;;;4.57;3.70;;;27.80;71.70;;;;;;2345202;53;20916;-68
2021/06/26 12:01:14;;;;;;;5.65;3.83;;;27.90;70.60;;;;;;2345100;53;20942;-64
2021/06/26 12:03:43;;;;;;;5.75;3.62;;;28.00;71.80;;;;;;2342966;53;21008;-72
2021/06/26 12:06:11;;;;;;;6.12;4.07;;;28.00;71.20;;;;;;2356566;53;21046;-75
2021/06/26 12:08:56;;;;;;;5.15;4.28;;;28.10;71.50;;;;;;2346960;53;20902;-72
2021/06/26 12:11:35;;;;;;;5.12;4.20;;;28.20;69.40;;;;;;2345627;53;20954;-70
2021/06/26 12:14:02;;;;;;;5.35;3.87;;;28.20;69.50;;;;;;2349010;53;20973;-67
2021/06/26 12:16:31;;;;;;;4.68;3.83;;;28.30;71.00;;;;;;2344159;53;21015;-67
2021/06/26 12:18:59;;;;;;;4.57;3.70;;;28.30;69.80;;;;;;2347647;53;20922;-73
2021/06/26 12:21:38;;;;;;;4.80;3.75;;;28.40;70.00;;;;;;2349064;53;20985;-66
2021/06/26 12:24:04;;;;;;;4.18;3.17;;;28.40;70.00;;;;;;2346559;53;21009;-68
2021/06/26 12:26:31;;;;;;;5.35;3.70;;;28.40;70.20;;;;;;2350772;53;20934;-67
2021/06/26 12:29:00;;;;;;;4.97;3.90;;;28.50;70.10;;;;;;2348705;53;20946;-70
2021/06/26 12:31:27;;;;;;;5.18;3.70;;;28.50;69.10;;;;;;2347526;53;20950;-69
2021/06/26 12:34:08;;;;;;;4.90;3.78;;;28.50;69.40;;;;;;2588908;52;21047;-69
2021/06/26 12:36:35;;;;;;;4.35;3.50;;;28.50;67.10;;;;;;2346228;53;21014;-69
2021/06/26 12:39:02;;;;;;;4.60;3.58;;;28.50;68.80;;;;;;2346686;53;20929;-68
2021/06/26 12:41:33;;;;;;;5.00;3.83;;;28.50;68.70;;;;;;2520267;52;21151;-66
2021/06/26 12:44:00;;;;;;;5.97;3.58;;;28.50;67.80;;;;;;2344758;53;21412;-65
2021/06/26 12:46:27;;;;;;;4.28;3.45;;;28.40;68.10;;;;;;2349779;53;20982;-65
2021/06/26 12:49:03;;;;;;;4.35;3.58;;;28.40;68.10;;;;;;2348013;54;20977;-68
2021/06/26 12:51:35;;;;;;;4.65;3.53;;;28.30;68.10;;;;;;2346476;53;20969;-68
2021/06/26 12:54:09;;;;;;;4.85;3.87;;;28.30;68.10;;;;;;2348659;53;21010;-64
2021/06/26 12:56:36;;;;;;;5.03;4.00;;;28.20;67.10;;;;;;2348292;53;22478;-65
2021/06/26 12:59:04;;;;;;;4.35;3.45;;;28.20;68.20;;;;;;2349124;53;21972;-66